Weather History for Algona, IA

Change the Weather History Date:

Sunday, February 3, 2013

  Actual Average Record
Temperature  
Mean Temperature 18 °F -  
Max Temperature 28 °F 26 °F 53 °F (2005)
Min Temperature 8 °F 11 °F -11 °F (2007)
Degree Days  
Heating Degree Days 47    
Moisture  
Dew Point 14 °F    
Average Humidity 79    
Maximum Humidity 93    
Minimum Humidity 68    
Precipitation  
Precipitation 0.00 in - - ()
Sea Level Pressure  
Sea Level Pressure 29.97 in    
Wind  
Wind Speed 13 mph (West)    
Max Wind Speed 22 mph    
Max Gust Speed 40 mph    
Visibility 10 miles    
Events Snow    
Averages and records for this station are not official NWS values.
T = Trace of Precipitation, MM = Missing Value Source: NWS Daily Summary

Daily Weather History Graph

Daily Weather History Graph

Search for Another Location

Airport:

Trip Planner

Search our weather history database for the weather conditions in past years. The results will help you decide how hot, cold, wet, or windy it might be!

Date:

Astronomy

Feb. 03, 2013 Rise Set
Actual Time 7:29 AM CST 5:32 PM CST
Civil Twilight 6:59 AM CST 6:02 PM CST
Nautical Twilight 6:25 AM CST 6:36 PM CST
Astronomical Twilight 5:52 AM CST 7:09 PM CST
Moon 12:58 AM CST (2/3) 11:09 AM CST (2/3)
Length of Visible Light 11h 02m
Length of Day
10h 02m
Waning Gibbous, 48% of the Moon is Illuminated
Feb 3
Waning Gibbous
Feb 10
New
Feb 17
First Quarter
Feb 25
Full
Mar 4
Last Quarter

Hourly Weather History & Observations

Time (CST) Temp. Windchill Dew Point Humidity Pressure Visibility Wind Dir Wind Speed Gust Speed Precip Events Conditions
12:15 AM 21.2 °F 6.0 °F 17.6 °F 86% 29.99 in 5.0 mi NW 19.6 mph 29.9 mph N/A Snow Light Snow
12:35 AM 19.4 °F 3.2 °F 15.8 °F 86% 30.00 in 8.0 mi NNW 20.7 mph 32.2 mph N/A Snow Light Snow
12:55 AM 19.4 °F 2.8 °F 12.2 °F 74% 30.00 in 9.0 mi NNW 21.9 mph 40.3 mph N/A Snow Light Snow
1:15 AM 17.6 °F 1.7 °F 12.2 °F 79% 30.01 in 10.0 mi NW 18.4 mph 28.8 mph N/A Snow Light Snow
1:35 AM 19.4 °F 4.1 °F 14.0 °F 80% 30.03 in 10.0 mi NW 18.4 mph 25.3 mph N/A Snow Light Snow
1:55 AM 19.4 °F 3.2 °F 14.0 °F 80% 30.03 in 10.0 mi NW 20.7 mph 29.9 mph N/A Snow Light Snow
2:15 AM 19.4 °F 3.6 °F 14.0 °F 80% 30.03 in 9.0 mi NW 19.6 mph 29.9 mph N/A Snow Light Snow
2:35 AM 19.4 °F 3.6 °F 14.0 °F 80% 30.04 in 8.0 mi NW 19.6 mph 26.5 mph N/A Snow Light Snow
3:15 AM 17.6 °F 1.3 °F 12.2 °F 79% 30.05 in 10.0 mi NW 19.6 mph 33.4 mph N/A Snow Light Snow
3:35 AM 15.8 °F 0.9 °F 10.4 °F 79% 30.05 in 10.0 mi NW 15.0 mph 21.9 mph N/A Snow Light Snow
3:55 AM 15.8 °F -1.1 °F 8.6 °F 73% 30.05 in 10.0 mi NW 19.6 mph 28.8 mph N/A Snow Light Snow
4:15 AM 14.0 °F -3.4 °F 8.6 °F 79% 30.05 in 10.0 mi NW 19.6 mph 28.8 mph N/A Snow Light Snow
4:35 AM 14.0 °F -3.4 °F 8.6 °F 79% 30.06 in 10.0 mi NW 19.6 mph 26.5 mph N/A Snow Light Snow
4:55 AM 14.0 °F -0.8 °F 8.6 °F 79% 30.06 in 10.0 mi NW 13.8 mph 24.2 mph N/A   Scattered Clouds
5:15 AM 14.0 °F -2.5 °F 8.6 °F 79% 30.06 in 10.0 mi NNW 17.3 mph 24.2 mph N/A   Partly Cloudy
5:35 AM 12.2 °F -4.3 °F 6.8 °F 79% 30.07 in 10.0 mi NW 16.1 mph 21.9 mph N/A Snow Light Snow
6:15 AM 12.2 °F -0.2 °F 6.8 °F 79% 30.07 in 10.0 mi NNW 9.2 mph - N/A   Clear
6:35 AM 10.4 °F -0.4 °F 6.8 °F 85% 30.08 in 10.0 mi NW 6.9 mph - N/A   Clear
6:55 AM 8.6 °F -2.6 °F 5.0 °F 85% 30.08 in 10.0 mi West 6.9 mph - N/A   Clear
7:15 AM 8.6 °F -1.3 °F 5.0 °F 85% 30.08 in 10.0 mi WNW 5.8 mph - N/A   Mostly Cloudy
7:35 AM 10.4 °F 0.8 °F 6.8 °F 85% 30.08 in 10.0 mi NW 5.8 mph - N/A   Overcast
7:55 AM 10.4 °F 4.0 °F 6.8 °F 85% 30.07 in 10.0 mi NW 3.5 mph - N/A   Scattered Clouds
8:15 AM 10.4 °F - 6.8 °F 85% 30.07 in 10.0 mi Calm Calm - N/A   Scattered Clouds
8:35 AM 12.2 °F 6.1 °F 8.6 °F 85% 30.08 in 10.0 mi West 3.5 mph - N/A Snow Light Snow
8:55 AM 14.0 °F 5.1 °F 8.6 °F 79% 30.08 in 10.0 mi WSW 5.8 mph - N/A   Partly Cloudy
9:15 AM 14.0 °F 2.9 °F 8.6 °F 79% 30.08 in 10.0 mi West 8.1 mph - N/A Snow Light Snow
9:35 AM 15.8 °F 4.2 °F 8.6 °F 73% 30.09 in 10.0 mi West 9.2 mph - N/A   Overcast
9:55 AM 15.8 °F 6.1 °F 8.6 °F 73% 30.08 in 10.0 mi NW 6.9 mph - N/A   Overcast
10:15 AM 15.8 °F 6.1 °F 8.6 °F 73% 30.09 in 10.0 mi WNW 6.9 mph - N/A   Overcast
10:35 AM 15.8 °F 7.2 °F 10.4 °F 79% 30.09 in 10.0 mi WNW 5.8 mph - N/A   Overcast
10:55 AM 17.6 °F 7.3 °F 8.6 °F 68% 30.09 in 10.0 mi NW 8.1 mph - N/A   Overcast
11:15 AM 17.6 °F 9.3 °F 8.6 °F 68% 30.08 in 10.0 mi Variable 5.8 mph - N/A   Mostly Cloudy
11:35 AM 17.6 °F 7.3 °F 10.4 °F 73% 30.07 in 10.0 mi West 8.1 mph - N/A   Overcast
11:55 AM 17.6 °F 7.3 °F 10.4 °F 73% 30.06 in 10.0 mi West 8.1 mph - N/A   Overcast
12:15 PM 19.4 °F 11.5 °F 12.2 °F 74% 30.06 in 10.0 mi WSW 5.8 mph - N/A   Overcast
12:35 PM 19.4 °F - 12.2 °F 74% 30.04 in 10.0 mi Calm Calm - N/A   Overcast
12:55 PM 19.4 °F - 12.2 °F 74% 30.02 in 10.0 mi Calm Calm - N/A   Overcast
1:15 PM 21.2 °F 16.4 °F 12.2 °F 68% 30.01 in - SSW 3.5 mph - N/A   Overcast
1:35 PM 21.2 °F 14.9 °F 14.0 °F 74% 30.00 in 10.0 mi SSE 4.6 mph - N/A   Scattered Clouds
1:55 PM 23.0 °F 18.4 °F 14.0 °F 68% 29.98 in 10.0 mi South 3.5 mph - N/A   Scattered Clouds
2:15 PM 23.0 °F 13.9 °F 15.8 °F 74% 29.97 in 10.0 mi South 8.1 mph - N/A   Overcast
2:35 PM 24.8 °F 16.1 °F 15.8 °F 69% 29.97 in 10.0 mi South 8.1 mph - N/A   Overcast
2:55 PM 24.8 °F 17.9 °F 17.6 °F 74% 29.95 in 10.0 mi SSE 5.8 mph - N/A   Overcast
3:15 PM 24.8 °F 16.9 °F 17.6 °F 74% 29.95 in 10.0 mi South 6.9 mph - N/A   Overcast
3:35 PM 24.8 °F 16.9 °F 17.6 °F 74% 29.94 in 10.0 mi SSE 6.9 mph - N/A   Overcast
3:55 PM 26.6 °F 20.0 °F 19.4 °F 74% 29.93 in 10.0 mi ESE 5.8 mph - N/A   Overcast
4:15 PM 26.6 °F 20.0 °F 19.4 °F 74% 29.92 in 10.0 mi SE 5.8 mph - N/A   Overcast
4:35 PM 26.6 °F 18.2 °F 21.2 °F 80% 29.90 in 10.0 mi SE 8.1 mph - N/A   Overcast
4:55 PM 28.4 °F 20.4 °F 21.2 °F 74% 29.89 in 10.0 mi SE 8.1 mph - N/A   Overcast
5:15 PM 28.4 °F 20.4 °F 21.2 °F 74% 29.89 in 10.0 mi ESE 8.1 mph - N/A   Overcast
5:35 PM 28.4 °F 22.2 °F 21.2 °F 74% 29.88 in 10.0 mi ESE 5.8 mph - N/A   Overcast
5:55 PM 26.6 °F 18.2 °F 21.2 °F 80% 29.87 in 10.0 mi East 8.1 mph - N/A   Mostly Cloudy
6:15 PM 24.8 °F 15.3 °F 21.2 °F 86% 29.87 in 10.0 mi East 9.2 mph - N/A   Clear
6:35 PM 24.8 °F 14.6 °F 21.2 °F 86% 29.87 in 10.0 mi East 10.4 mph - N/A   Clear
6:55 PM 23.0 °F 11.7 °F 21.2 °F 93% 29.86 in 10.0 mi East 11.5 mph - N/A   Clear
7:15 PM 23.0 °F 12.4 °F 19.4 °F 86% 29.86 in 10.0 mi ESE 10.4 mph - N/A   Scattered Clouds
7:35 PM 23.0 °F 11.7 °F 19.4 °F 86% 29.85 in 10.0 mi ESE 11.5 mph - N/A   Scattered Clouds
7:55 PM 23.0 °F 12.4 °F 19.4 °F 86% 29.84 in 10.0 mi ESE 10.4 mph - N/A   Clear
8:15 PM 23.0 °F 13.1 °F 19.4 °F 86% 29.83 in 10.0 mi ESE 9.2 mph - N/A   Mostly Cloudy
8:35 PM 23.0 °F 12.4 °F 19.4 °F 86% 29.82 in 10.0 mi ESE 10.4 mph - N/A   Overcast
8:55 PM 23.0 °F 11.1 °F 19.4 °F 86% 29.82 in 10.0 mi SE 12.7 mph - N/A   Overcast
9:15 PM 23.0 °F 11.1 °F 19.4 °F 86% 29.80 in 10.0 mi SE 12.7 mph - N/A   Overcast
9:35 PM 23.0 °F 11.7 °F 19.4 °F 86% 29.80 in 10.0 mi ESE 11.5 mph - N/A   Overcast
9:55 PM 23.0 °F 12.4 °F 19.4 °F 86% 29.80 in 10.0 mi ESE 10.4 mph - N/A   Overcast
10:15 PM 23.0 °F 13.9 °F 19.4 °F 86% 29.79 in 10.0 mi ESE 8.1 mph - N/A   Overcast
10:35 PM 23.0 °F 13.1 °F 19.4 °F 86% 29.78 in 10.0 mi SE 9.2 mph - N/A   Overcast
10:55 PM 23.0 °F 13.1 °F 19.4 °F 86% 29.77 in 10.0 mi SE 9.2 mph - N/A   Overcast
11:15 PM 23.0 °F 12.4 °F 19.4 °F 86% 29.76 in 10.0 mi ESE 10.4 mph - N/A   Overcast
11:35 PM 23.0 °F 14.7 °F 19.4 °F 86% 29.76 in 10.0 mi SE 6.9 mph - N/A   Overcast
11:55 PM 23.0 °F 14.7 °F 17.6 °F 80% 29.77 in 10.0 mi NE 6.9 mph - N/A   Mostly Cloudy